createdAt,value
2018-12-13T00:01:34.993Z,101799.55
2018-12-13T00:06:33.431Z,101784.61
2018-12-13T00:11:27.890Z,101781.41
2018-12-13T00:16:23.480Z,101786.91
2018-12-13T00:21:19.931Z,101775.00
2018-12-13T00:26:15.381Z,101771.89
2018-12-13T00:31:10.889Z,101762.24
2018-12-13T00:36:07.487Z,101757.42
2018-12-13T00:41:02.561Z,101760.42
2018-12-13T00:45:58.077Z,101761.72
2018-12-13T00:50:53.083Z,101753.02
2018-12-13T00:55:48.441Z,101749.61
2018-12-13T01:00:43.605Z,101755.36
2018-12-13T01:05:39.021Z,101749.80
2018-12-13T01:10:33.864Z,101747.19
2018-12-13T01:15:33.619Z,101741.44
2018-12-13T01:20:29.762Z,101740.13
2018-12-13T01:25:25.378Z,101742.75
2018-12-13T01:30:20.093Z,101741.41
2018-12-13T01:35:14.891Z,101737.44
2018-12-13T01:40:09.547Z,101739.16
2018-12-13T01:45:04.244Z,101733.59
2018-12-13T01:49:59.019Z,101729.04
2018-12-13T01:54:53.695Z,101720.53
2018-12-13T01:59:48.388Z,101716.45
2018-12-13T02:04:43.095Z,101719.70
2018-12-13T02:09:37.822Z,101719.88
2018-12-13T02:14:32.527Z,101722.15
2018-12-13T02:19:27.302Z,101715.31
2018-12-13T02:24:21.990Z,101717.14
2018-12-13T02:29:16.703Z,101713.69
2018-12-13T02:34:11.413Z,101711.13
2018-12-13T02:39:07.143Z,101708.13
2018-12-13T02:44:01.869Z,101702.03
2018-12-13T02:49:09.940Z,101703.75
2018-12-13T02:54:04.651Z,101697.70
2018-12-13T02:58:59.322Z,101692.95
2018-12-13T03:03:54.155Z,101680.38
2018-12-13T03:08:48.936Z,101672.61
2018-12-13T03:13:43.643Z,101667.45
2018-12-13T03:18:38.349Z,101672.29
2018-12-13T03:23:33.040Z,101668.01
2018-12-13T03:28:27.703Z,101665.45
2018-12-13T03:33:22.399Z,101661.97
2018-12-13T03:38:17.062Z,101652.83
2018-12-13T03:43:11.912Z,101647.17
2018-12-13T03:48:06.577Z,101644.59
2018-12-13T03:53:01.237Z,101635.89
2018-12-13T03:57:55.935Z,101627.62
2018-12-13T04:02:50.628Z,101635.44
2018-12-13T04:07:45.351Z,101622.38
2018-12-13T04:12:40.013Z,101628.51
2018-12-13T04:17:34.718Z,101622.45
2018-12-13T04:22:29.488Z,101616.84
2018-12-13T04:27:24.206Z,101612.05
2018-12-13T04:32:18.897Z,101613.36
2018-12-13T04:37:13.581Z,101606.86
2018-12-13T04:42:08.253Z,101608.18
2018-12-13T04:47:02.952Z,101600.38
2018-12-13T04:51:57.630Z,101595.19
2018-12-13T04:56:52.288Z,101591.70
2018-12-13T05:01:46.972Z,101593.91
2018-12-13T05:06:41.685Z,101602.16
2018-12-13T05:11:36.403Z,101597.40
2018-12-13T05:16:31.091Z,101588.73
2018-12-13T05:21:25.744Z,101596.97
2018-12-13T05:26:20.427Z,101590.91
2018-12-13T05:31:15.098Z,101580.09
2018-12-13T05:36:09.793Z,101584.05
2018-12-13T05:41:04.481Z,101584.95
2018-12-13T05:45:59.275Z,101581.09
2018-12-13T05:50:54.044Z,101575.92
2018-12-13T05:55:48.718Z,101585.50
2018-12-13T06:00:43.387Z,101580.73
2018-12-13T06:05:38.086Z,101572.91
2018-12-13T06:10:32.753Z,101579.44
2018-12-13T06:15:27.421Z,101571.23
2018-12-13T06:20:22.141Z,101574.28
2018-12-13T06:25:16.791Z,101579.95
2018-12-13T06:30:11.484Z,101581.23
2018-12-13T06:35:06.707Z,101578.62
2018-12-13T06:40:01.427Z,101585.94
2018-12-13T06:44:56.183Z,101586.80
2018-12-13T06:49:50.918Z,101585.06
2018-12-13T06:54:45.713Z,101589.41
2018-12-13T06:59:40.923Z,101585.92
2018-12-13T07:04:35.641Z,101589.42
2018-12-13T07:09:30.330Z,101589.84
2018-12-13T07:14:25.010Z,101592.91
2018-12-13T07:19:19.770Z,101595.52
2018-12-13T07:24:14.576Z,101609.00
2018-12-13T07:29:09.341Z,101606.42
2018-12-13T07:34:04.139Z,101613.80
2018-12-13T07:38:58.815Z,101610.34
2018-12-13T07:43:53.589Z,101615.95
2018-12-13T07:48:48.288Z,101618.11
2018-12-13T07:53:42.957Z,101624.19
2018-12-13T07:58:44.450Z,101626.33
2018-12-13T08:03:39.121Z,101620.67
2018-12-13T08:08:33.865Z,101619.28
2018-12-13T08:13:28.519Z,101621.96
2018-12-13T08:18:23.179Z,101625.97
2018-12-13T08:23:17.800Z,101625.17
2018-12-13T08:28:12.494Z,101623.11
2018-12-13T08:33:07.157Z,101619.84
2018-12-13T08:38:01.799Z,101629.36
2018-12-13T08:42:58.421Z,101616.30
2018-12-13T08:47:53.114Z,101619.99
2018-12-13T08:52:47.904Z,101612.73
2018-12-13T08:57:42.551Z,101622.28
2018-12-13T09:02:37.271Z,101619.33
2018-12-13T09:07:31.968Z,101613.81
2018-12-13T09:12:26.628Z,101611.22
2018-12-13T09:17:21.259Z,101613.88
2018-12-13T09:22:15.969Z,101609.66
2018-12-13T09:27:10.894Z,101608.86
2018-12-13T09:32:05.605Z,101613.38
2018-12-13T09:37:00.407Z,101613.79
2018-12-13T09:41:55.084Z,101612.83
2018-12-13T09:46:49.799Z,101618.02
2018-12-13T09:51:44.467Z,101618.91
2018-12-13T09:56:39.119Z,101613.98
2018-12-13T10:01:33.845Z,101610.14
2018-12-13T10:06:28.630Z,101608.55
2018-12-13T10:11:23.335Z,101606.45
2018-12-13T10:16:18.052Z,101594.57
2018-12-13T10:21:12.754Z,101595.82
2018-12-13T10:26:07.387Z,101590.44
2018-12-13T10:31:02.091Z,101587.89
2018-12-13T10:35:56.750Z,101586.98
2018-12-13T10:40:51.474Z,101576.97
2018-12-13T10:45:46.231Z,101574.70
2018-12-13T10:50:40.893Z,101577.69
2018-12-13T10:55:35.817Z,101572.63
2018-12-13T11:00:35.591Z,101574.27
2018-12-13T11:05:30.347Z,101570.34
2018-12-13T11:10:25.489Z,101571.28
2018-12-13T11:15:20.564Z,101566.63
2018-12-13T11:20:15.234Z,101568.02
2018-12-13T11:25:09.965Z,101557.20
2018-12-13T11:30:36.063Z,101550.77
2018-12-13T11:35:30.748Z,101543.82
2018-12-13T11:40:25.769Z,101542.52
2018-12-13T11:45:20.511Z,101527.75
2018-12-13T11:50:15.263Z,101523.45
2018-12-13T11:55:28.551Z,101519.10
2018-12-13T12:00:23.608Z,101510.83
2018-12-13T12:05:18.306Z,101503.36
2018-12-13T12:10:13.002Z,101505.50
2018-12-13T12:15:07.796Z,101494.97
2018-12-13T12:20:02.540Z,101493.59
2018-12-13T12:24:57.217Z,101493.03
2018-12-13T12:29:51.897Z,101483.36
2018-12-13T12:34:46.677Z,101482.80
2018-12-13T12:39:41.403Z,101476.61
2018-12-13T12:44:38.278Z,101455.57
2018-12-13T12:49:33.040Z,101455.52
2018-12-13T12:54:27.703Z,101452.81
2018-12-13T12:59:22.376Z,101443.60
2018-12-13T13:04:17.100Z,101452.23
2018-12-13T13:09:11.760Z,101444.33
2018-12-13T13:14:06.475Z,101441.28
2018-12-13T13:19:01.138Z,101436.94
2018-12-13T13:23:55.793Z,101443.05
2018-12-13T13:28:50.496Z,101438.75
2018-12-13T13:33:45.139Z,101437.61
2018-12-13T13:38:39.816Z,101439.00
2018-12-13T13:43:34.493Z,101435.53
2018-12-13T13:48:29.196Z,101435.53
2018-12-13T13:53:23.879Z,101427.31
2018-12-13T13:58:18.590Z,101420.77
2018-12-13T14:03:13.397Z,101413.37
2018-12-13T14:08:08.178Z,101416.42
2018-12-13T14:13:02.862Z,101420.21
2018-12-13T14:17:57.558Z,101429.14
2018-12-13T14:22:52.894Z,101422.91
2018-12-13T14:27:47.584Z,101427.14
2018-12-13T14:32:42.328Z,101431.80
2018-12-13T14:37:37.149Z,101433.30
2018-12-13T14:42:31.835Z,101440.91
2018-12-13T14:47:26.646Z,101444.15
2018-12-13T14:52:21.331Z,101448.23
2018-12-13T14:57:16.150Z,101453.14
2018-12-13T15:02:10.836Z,101453.27
2018-12-13T15:07:05.521Z,101450.34
2018-12-13T15:12:00.217Z,101449.56
2018-12-13T15:16:54.927Z,101461.91
2018-12-13T15:21:49.663Z,101462.02
2018-12-13T15:26:44.336Z,101472.52
2018-12-13T15:31:39.265Z,101471.77
2018-12-13T15:36:33.965Z,101455.33
2018-12-13T15:41:30.054Z,101465.01
2018-12-13T15:46:24.865Z,101479.95
2018-12-13T15:51:19.623Z,101484.86
2018-12-13T15:56:16.801Z,101484.49
2018-12-13T16:01:11.612Z,101490.14
2018-12-13T16:06:06.317Z,101492.73
2018-12-13T16:11:01.049Z,101504.48
2018-12-13T16:15:55.696Z,101501.04
2018-12-13T16:20:51.735Z,101493.22
2018-12-13T16:25:46.850Z,101492.73
2018-12-13T16:30:41.723Z,101493.22
2018-12-13T16:35:36.458Z,101492.40
2018-12-13T16:40:31.184Z,101490.73
2018-12-13T16:45:25.969Z,101492.09
2018-12-13T16:50:20.644Z,101486.98
2018-12-13T16:55:15.954Z,101480.98
2018-12-13T17:00:10.935Z,101481.45
2018-12-13T17:05:05.709Z,101484.35
2018-12-13T17:10:00.454Z,101488.53
2018-12-13T17:14:55.164Z,101487.92
2018-12-13T17:19:51.151Z,101492.17
2018-12-13T17:24:45.863Z,101497.79
2018-12-13T17:29:40.575Z,101497.73
2018-12-13T17:34:35.285Z,101502.85
2018-12-13T17:39:30.067Z,101491.91
2018-12-13T17:44:24.779Z,101503.59
2018-12-13T17:49:19.642Z,101500.05
2018-12-13T17:54:14.434Z,101501.34
2018-12-13T17:59:09.096Z,101497.80
2018-12-13T18:04:04.093Z,101504.69
2018-12-13T18:08:58.822Z,101504.70
2018-12-13T18:13:53.593Z,101499.52
2018-12-13T18:18:48.532Z,101500.42
2018-12-13T18:23:43.454Z,101510.53
2018-12-13T18:28:38.183Z,101521.63
2018-12-13T18:33:32.934Z,101520.89
2018-12-13T18:38:27.597Z,101519.66
2018-12-13T18:43:22.308Z,101516.63
2018-12-13T18:48:17.272Z,101515.27
2018-12-13T18:53:11.968Z,101514.80
2018-12-13T18:58:06.676Z,101516.95
2018-12-13T19:03:01.435Z,101519.95
2018-12-13T19:07:56.186Z,101518.69
2018-12-13T19:12:50.950Z,101520.06
2018-12-13T19:17:47.800Z,101519.70
2018-12-13T19:22:43.500Z,101518.88
2018-12-13T19:27:38.991Z,101523.19
2018-12-13T19:32:34.273Z,101527.92
2018-12-13T19:37:29.270Z,101530.44
2018-12-13T19:42:24.676Z,101535.59
2018-12-13T19:47:19.386Z,101547.25
2018-12-13T19:52:14.272Z,101538.92
2018-12-13T19:57:09.041Z,101545.85
2018-12-13T20:02:04.080Z,101541.11
2018-12-13T20:06:58.764Z,101533.73
2018-12-13T20:11:53.472Z,101540.70
2018-12-13T20:16:48.233Z,101539.39
2018-12-13T20:21:42.951Z,101535.45
2018-12-13T20:26:37.665Z,101534.58
2018-12-13T20:31:32.399Z,101543.69
2018-12-13T20:36:27.153Z,101539.30
2018-12-13T20:41:21.833Z,101544.02
2018-12-13T20:46:17.220Z,101539.21
2018-12-13T20:51:11.908Z,101551.34
2018-12-13T20:56:06.635Z,101559.55
2018-12-13T21:01:01.332Z,101559.53
2018-12-13T21:05:56.034Z,101565.62
2018-12-13T21:10:50.743Z,101573.01
2018-12-13T21:15:45.425Z,101574.31
2018-12-13T21:20:40.255Z,101567.31
2018-12-13T21:25:34.959Z,101570.39
2018-12-13T21:30:29.656Z,101572.56
2018-12-13T21:35:24.303Z,101565.19
2018-12-13T21:40:19.592Z,101563.44
2018-12-13T21:45:14.576Z,101561.70
2018-12-13T21:50:09.625Z,101559.92
2018-12-13T21:55:05.433Z,101557.28
2018-12-13T22:00:00.343Z,101552.95
2018-12-13T22:04:55.399Z,101552.12
2018-12-13T22:09:50.391Z,101552.95
2018-12-13T22:14:45.337Z,101553.79
2018-12-13T22:19:40.959Z,101550.75
2018-12-13T22:24:35.995Z,101557.69
2018-12-13T22:29:31.130Z,101561.20
2018-12-13T22:34:26.713Z,101561.59
2018-12-13T22:39:21.851Z,101564.25
2018-12-13T22:44:17.042Z,101567.78
2018-12-13T22:49:12.017Z,101563.45
2018-12-13T22:54:07.627Z,101566.92
2018-12-13T22:59:02.417Z,101565.08
2018-12-13T23:03:58.244Z,101566.69
2018-12-13T23:08:53.452Z,101570.09
2018-12-13T23:13:49.611Z,101577.03
2018-12-13T23:18:44.494Z,101565.63
2018-12-13T23:23:39.816Z,101571.65
2018-12-13T23:28:35.489Z,101564.67
2018-12-13T23:33:30.722Z,101571.24
2018-12-13T23:38:25.874Z,101557.28
2018-12-13T23:43:22.625Z,101562.13
2018-12-13T23:48:17.894Z,101563.04
2018-12-13T23:53:12.942Z,101554.80
2018-12-13T23:58:08.201Z,101565.36
